Time;durP1;ratioP1;P1;durP2;ratioP2;P2;SDS_P1;SDS_P2;PMS_P1;PMS_P2;Temp;Humidity;BMP_temperature;BMP_pressure;BME280_temperature;BME280_humidity;BME280_pressure;Samples;Min_cycle;Max_cycle;Signal;HPM_P1;HPM_P2
2022/05/07 00:00:44;;;;;;;56.97;36.85;;;;;;;;;;5084849;28;20047;-86
2022/05/07 00:03:10;;;;;;;60.20;36.22;;;;;;;;;;5078995;28;20192;-86
2022/05/07 00:05:37;;;;;;;56.35;36.92;;;;;;;;;;5101719;28;20047;-87
2022/05/07 00:08:04;;;;;;;62.85;36.90;;;;;;;;;;5087574;28;20505;-90
2022/05/07 00:10:30;;;;;;;62.60;39.05;;;;;;;;;;5103500;28;20585;-89
2022/05/07 00:12:56;;;;;;;55.63;36.45;;;;;;;;;;5086168;28;20481;-91
2022/05/07 00:15:23;;;;;;;60.75;38.88;;;;;;;;;;5084615;27;20127;-90
2022/05/07 00:18:01;;;;;;;63.20;37.75;;;;;;;;;;5105142;27;20043;-87
2022/05/07 00:20:28;;;;;;;74.22;41.42;;;;;;;;;;5105116;27;20034;-90
2022/05/07 00:22:58;;;;;;;67.63;41.65;;;;;;;;;;5082442;27;20382;-91
2022/05/07 00:25:24;;;;;;;68.47;41.90;;;;;;;;;;5103647;27;20031;-87
2022/05/07 00:27:50;;;;;;;65.70;40.47;;;;;;;;;;5104139;27;22020;-89
2022/05/07 00:30:16;;;;;;;64.05;39.90;;;;;;;;;;5105345;27;20040;-90
2022/05/07 00:32:42;;;;;;;67.00;40.50;;;;;;;;;;5068899;27;20039;-90
2022/05/07 00:35:10;;;;;;;66.68;40.65;;;;;;;;;;5085669;27;20420;-90
2022/05/07 00:37:36;;;;;;;69.65;43.20;;;;;;;;;;5107051;27;20062;-89
2022/05/07 00:40:03;;;;;;;70.70;42.08;;;;;;;;;;5108238;27;20039;-91
2022/05/07 00:42:29;;;;;;;69.07;43.13;;;;;;;;;;5106987;27;20100;-91
2022/05/07 00:44:55;;;;;;;72.95;43.78;;;;;;;;;;5081240;28;20036;-92
2022/05/07 00:47:23;;;;;;;79.22;44.38;;;;;;;;;;5105082;27;20092;-90
2022/05/07 00:49:50;;;;;;;79.97;44.30;;;;;;;;;;5086894;27;20401;-92
2022/05/07 00:52:18;;;;;;;79.43;44.20;;;;;;;;;;5099895;28;20031;-90
2022/05/07 00:54:44;;;;;;;70.63;42.08;;;;;;;;;;5104580;28;20046;-88
2022/05/07 00:57:12;;;;;;;80.57;46.08;;;;;;;;;;5080800;28;20085;-88
2022/05/07 00:59:38;;;;;;;79.68;44.55;;;;;;;;;;5100759;28;20366;-91
2022/05/07 01:02:04;;;;;;;77.22;44.83;;;;;;;;;;5105177;28;20146;-91
2022/05/07 01:04:30;;;;;;;75.18;43.60;;;;;;;;;;5076135;28;20035;-90
2022/05/07 01:06:56;;;;;;;73.85;43.22;;;;;;;;;;5103791;28;21389;-88
2022/05/07 01:09:22;;;;;;;77.53;44.08;;;;;;;;;;5084020;28;20055;-89
2022/05/07 01:11:48;;;;;;;71.28;43.55;;;;;;;;;;5106307;28;20127;-91
2022/05/07 01:14:14;;;;;;;74.53;42.83;;;;;;;;;;5082188;28;20054;-90
2022/05/07 01:16:40;;;;;;;71.85;42.83;;;;;;;;;;5101670;28;20051;-91
2022/05/07 01:19:06;;;;;;;73.20;42.90;;;;;;;;;;5104888;28;20050;-93
2022/05/07 01:21:33;;;;;;;;;;;;;;;;;;5090405;28;20062;-92
2022/05/07 01:23:59;;;;;;;;;;;;;;;;;;5105497;28;19915;-92
2022/05/07 01:26:25;;;;;;;;;;;;;;;;;;5106296;28;19915;-89
2022/05/07 01:28:51;;;;;;;;;;;;;;;;;;5087293;28;19928;-89
2022/05/07 01:31:18;;;;;;;;;;;;;;;;;;5109852;27;20016;-88
2022/05/07 01:33:44;;;;;;;;;;;;;;;;;;5092918;27;20018;-93
2022/05/07 01:36:13;;;;;;;;;;;;;;;;;;5107049;27;20011;-94
2022/05/07 01:38:39;;;;;;;;;;;;;;;;;;5094668;27;19967;-88
2022/05/07 01:41:05;;;;;;;;;;;;;;;;;;5090857;27;19966;-93
2022/05/07 01:43:34;;;;;;;;;;;;;;;;;;5087917;27;20418;-93
2022/05/07 01:46:00;;;;;;;;;;;;;;;;;;5084165;27;19920;-93
2022/05/07 01:48:26;;;;;;;;;;;;;;;;;;5108606;27;19919;-90
2022/05/07 01:50:52;;;;;;;;;;;;;;;;;;5113142;27;19919;-92
2022/05/07 01:53:18;;;;;;;;;;;;;;;;;;5098985;27;19923;-87
2022/05/07 01:55:44;;;;;;;;;;;;;;;;;;5110384;27;20003;-93
2022/05/07 01:58:11;;;;;;;;;;;;;;;;;;5086464;27;19939;-91
2022/05/07 02:00:37;;;;;;;;;;;;;;;;;;5115740;27;20006;-93
2022/05/07 02:03:03;;;;;;;;;;;;;;;;;;5111658;27;20418;-91
2022/05/07 02:05:29;;;;;;;;;;;;;;;;;;5098808;27;20361;-89
2022/05/07 02:07:55;;;;;;;;;;;;;;;;;;5116111;27;20048;-89
2022/05/07 02:10:21;;;;;;;;;;;;;;;;;;5088769;27;19927;-89
2022/05/07 02:12:47;;;;;;;;;;;;;;;;;;5088834;28;20415;-94
2022/05/07 02:15:13;;;;;;;;;;;;;;;;;;5097526;27;19942;-91
2022/05/07 02:17:39;;;;;;;;;;;;;;;;;;5107185;27;19936;-94
2022/05/07 02:20:05;;;;;;;;;;;;;;;;;;5111855;27;19922;-96
2022/05/07 02:22:31;;;;;;;;;;;;;;;;;;5087290;27;19934;-93
2022/05/07 02:24:58;;;;;;;;;;;;;;;;;;5108119;27;19915;-94
2022/05/07 02:27:24;;;;;;;;;;;;;;;;;;5107148;27;19923;-93
2022/05/07 02:29:50;;;;;;;;;;;;;;;;;;5105061;27;19927;-94
2022/05/07 02:32:17;;;;;;;;;;;;;;;;;;5090786;27;19948;-89
2022/05/07 02:34:43;;;;;;;;;;;;;;;;;;5110100;27;19929;-93
2022/05/07 02:37:09;;;;;;;;;;;;;;;;;;5107025;27;19915;-92
2022/05/07 02:39:35;;;;;;;;;;;;;;;;;;5108934;27;20315;-95
2022/05/07 02:44:46;;;;;;;;;;;;;;;;;;5108237;27;19923;-89
2022/05/07 02:47:12;;;;;;;;;;;;;;;;;;5106883;27;19915;-89
2022/05/07 02:49:37;;;;;;;;;;;;;;;;;;5109647;27;19950;-91
2022/05/07 02:52:03;;;;;;;;;;;;;;;;;;5089540;27;19915;-89
2022/05/07 02:54:29;;;;;;;;;;;;;;;;;;5107403;27;19980;-88
2022/05/07 02:56:55;;;;;;;;;;;;;;;;;;5108019;27;19982;-89
2022/05/07 02:59:21;;;;;;;;;;;;;;;;;;5107985;27;19927;-89
2022/05/07 03:01:47;;;;;;;;;;;;;;;;;;5086220;27;20390;-90
2022/05/07 03:04:13;;;;;;;;;;;;;;;;;;5089260;27;19927;-84
2022/05/07 03:06:39;;;;;;;;;;;;;;;;;;5104367;27;19919;-87
2022/05/07 03:09:05;;;;;;;;;;;;;;;;;;5111336;27;20368;-88
2022/05/07 03:11:33;;;;;;;;;;;;;;;;;;5083818;27;19979;-89
2022/05/07 03:13:59;;;;;;;;;;;;;;;;;;5113369;27;19915;-91
2022/05/07 03:16:25;;;;;;;;;;;;;;;;;;5087993;27;19919;-87
2022/05/07 03:18:51;;;;;;;;;;;;;;;;;;5111883;27;20017;-90
2022/05/07 03:21:17;;;;;;;;;;;;;;;;;;5084439;27;19915;-90
2022/05/07 03:23:44;;;;;;;;;;;;;;;;;;5111442;27;20334;-90
2022/05/07 03:26:11;;;;;;;;;;;;;;;;;;5092399;27;19983;-90
2022/05/07 03:28:37;;;;;;;;;;;;;;;;;;5108230;27;20409;-89
2022/05/07 03:31:03;;;;;;;;;;;;;;;;;;5104508;27;19916;-93
2022/05/07 03:33:29;;;;;;;;;;;;;;;;;;5108230;27;19922;-93
2022/05/07 03:35:55;;;;;;;;;;;;;;;;;;5090977;27;19927;-90
2022/05/07 03:38:22;;;;;;;;;;;;;;;;;;5107844;27;19919;-93
2022/05/07 03:40:48;;;;;;;;;;;;;;;;;;5087980;27;19920;-93
2022/05/07 03:43:14;;;;;;;;;;;;;;;;;;5090798;27;20023;-92
2022/05/07 03:45:40;;;;;;;;;;;;;;;;;;5092001;27;19955;-91
2022/05/07 03:48:06;;;;;;;;;;;;;;;;;;5108013;27;19934;-90
2022/05/07 03:50:32;;;;;;;;;;;;;;;;;;5103425;27;19922;-93
2022/05/07 03:55:42;;;;;;;;;;;;;;;;;;5101858;27;19921;-92
2022/05/07 03:58:15;;;;;;;;;;;;;;;;;;5107831;27;19923;-93
2022/05/07 04:00:41;;;;;;;;;;;;;;;;;;5087616;27;19915;-92
2022/05/07 04:03:07;;;;;;;;;;;;;;;;;;5089450;27;19915;-92
2022/05/07 04:05:33;;;;;;;;;;;;;;;;;;5106228;27;19919;-91
2022/05/07 04:07:58;;;;;;;;;;;;;;;;;;5107137;27;19916;-93
2022/05/07 04:10:24;;;;;;;;;;;;;;;;;;5085561;27;19920;-93
2022/05/07 04:12:51;;;;;;;;;;;;;;;;;;5100629;27;19962;-96
2022/05/07 04:15:17;;;;;;;;;;;;;;;;;;5106466;27;19915;-94
2022/05/07 04:17:43;;;;;;;;;;;;;;;;;;5109124;27;19922;-91
2022/05/07 04:20:09;;;;;;;;;;;;;;;;;;5092259;27;19958;-94
2022/05/07 04:22:35;;;;;;;;;;;;;;;;;;5103916;27;20334;-92
2022/05/07 04:25:01;;;;;;;;;;;;;;;;;;5105465;27;19915;-93
2022/05/07 04:27:27;;;;;;;;;;;;;;;;;;5104254;27;19938;-93
2022/05/07 04:29:53;;;;;;;;;;;;;;;;;;5083321;27;20010;-89
2022/05/07 04:32:19;;;;;;;;;;;;;;;;;;5103877;27;19915;-92
2022/05/07 04:34:45;;;;;;;;;;;;;;;;;;5081944;27;20346;-93
2022/05/07 04:37:11;;;;;;;;;;;;;;;;;;5108320;27;19962;-94
2022/05/07 04:39:37;;;;;;;;;;;;;;;;;;5104803;27;20029;-91
2022/05/07 04:42:03;;;;;;;;;;;;;;;;;;5088387;27;19916;-94
2022/05/07 04:44:29;;;;;;;;;;;;;;;;;;5105956;27;19922;-96
2022/05/07 04:46:55;;;;;;;;;;;;;;;;;;5106883;28;19915;-96
2022/05/07 04:49:22;;;;;;;;;;;;;;;;;;5087805;28;19977;-90
2022/05/07 04:51:50;;;;;;;;;;;;;;;;;;5105798;28;19924;-93
2022/05/07 04:54:16;;;;;;;;;;;;;;;;;;5087697;28;19987;-92
2022/05/07 04:56:43;;;;;;;;;;;;;;;;;;5103238;27;20346;-93
2022/05/07 04:59:09;;;;;;;;;;;;;;;;;;5104634;28;19924;-90
2022/05/07 05:01:34;;;;;;;;;;;;;;;;;;5101606;28;19939;-95
2022/05/07 05:04:00;;;;;;;;;;;;;;;;;;5102785;28;19915;-94
2022/05/07 05:06:26;;;;;;;;;;;;;;;;;;5109928;27;19926;-94
2022/05/07 05:08:52;;;;;;;;;;;;;;;;;;5092144;27;20669;-92
2022/05/07 05:11:18;;;;;;;;;;;;;;;;;;5083571;27;20365;-90
2022/05/07 05:13:44;;;;;;;;;;;;;;;;;;5094747;27;19916;-89
2022/05/07 05:16:10;;;;;;;;;;;;;;;;;;5089718;27;19919;-91
2022/05/07 05:18:36;;;;;;;;;;;;;;;;;;5093474;27;19916;-93
2022/05/07 05:21:02;;;;;;;;;;;;;;;;;;5088557;27;19923;-90
2022/05/07 05:23:28;;;;;;;;;;;;;;;;;;5097933;27;19923;-93
2022/05/07 05:25:54;;;;;;;;;;;;;;;;;;5107914;27;20258;-94
2022/05/07 05:28:20;;;;;;;;;;;;;;;;;;5092325;27;20026;-90
2022/05/07 05:30:51;;;;;;;;;;;;;;;;;;5089710;27;21314;-87
2022/05/07 05:33:17;;;;;;;;;;;;;;;;;;5109496;27;19915;-90
2022/05/07 05:35:43;;;;;;;;;;;;;;;;;;5104892;27;20016;-92
2022/05/07 05:38:09;;;;;;;;;;;;;;;;;;5113658;27;19915;-94
2022/05/07 05:40:35;;;;;;;;;;;;;;;;;;5107087;27;19922;-87
2022/05/07 05:43:00;;;;;;;;;;;;;;;;;;5093459;27;19955;-92
2022/05/07 05:45:29;;;;;;;;;;;;;;;;;;5092061;27;19934;-93
2022/05/07 05:47:55;;;;;;;;;;;;;;;;;;5095166;27;19923;-92
2022/05/07 05:50:21;;;;;;;;;;;;;;;;;;5091498;27;19920;-88
2022/05/07 05:52:47;;;;;;;;;;;;;;;;;;5090668;27;19927;-90
2022/05/07 05:55:13;;;;;;;;;;;;;;;;;;5109826;27;19915;-89
2022/05/07 05:57:39;;;;;;;;;;;;;;;;;;5089197;27;20508;-90
2022/05/07 06:00:07;;;;;;;;;;;;;;;;;;5105717;27;19933;-87
2022/05/07 06:02:33;;;;;;;;;;;;;;;;;;5106143;27;19922;-90
2022/05/07 06:04:59;;;;;;;;;;;;;;;;;;5108530;27;20006;-89
2022/05/07 06:07:25;;;;;;;;;;;;;;;;;;5108786;27;19922;-91
2022/05/07 06:09:51;;;;;;;;;;;;;;;;;;5104670;27;19927;-90
2022/05/07 06:12:17;;;;;;;;;;;;;;;;;;5104928;27;19928;-91
2022/05/07 06:14:42;;;;;;;;;;;;;;;;;;5089541;27;19915;-90
2022/05/07 06:17:08;;;;;;;;;;;;;;;;;;5090503;27;19920;-92
2022/05/07 06:19:34;;;;;;;;;;;;;;;;;;5132231;27;20027;-87
2022/05/07 06:22:00;;;;;;;;;;;;;;;;;;5093806;27;19931;-93
2022/05/07 06:29:56;;;;;;;;;;;;;;;;;;5111505;27;20009;-91
2022/05/07 06:32:22;;;;;;;;;;;;;;;;;;5115088;27;19927;-86
2022/05/07 06:34:48;;;;;;;;;;;;;;;;;;5098401;27;21063;-86
2022/05/07 06:37:14;;;;;;;;;;;;;;;;;;5107149;27;19920;-87
2022/05/07 06:39:40;;;;;;;;;;;;;;;;;;5103756;27;19987;-84
2022/05/07 06:42:06;;;;;;;;;;;;;;;;;;5082713;27;19996;-85
2022/05/07 06:44:32;;;;;;;;;;;;;;;;;;5087642;27;19938;-89
2022/05/07 06:46:58;;;;;;;;;;;;;;;;;;5105005;27;20047;-89
2022/05/07 06:49:24;;;;;;;;;;;;;;;;;;5115728;27;20001;-93
2022/05/07 06:51:51;;;;;;;;;;;;;;;;;;5090392;27;19920;-91
2022/05/07 06:54:17;;;;;;;;;;;;;;;;;;5104122;27;20033;-93
2022/05/07 06:56:43;;;;;;;;;;;;;;;;;;5093165;27;19953;-82
2022/05/07 06:59:10;;;;;;;;;;;;;;;;;;5094437;27;19992;-83
2022/05/07 07:01:36;;;;;;;;;;;;;;;;;;5104257;27;20376;-83
2022/05/07 07:04:01;;;;;;;;;;;;;;;;;;5090335;27;19981;-85
2022/05/07 07:06:28;;;;;;;;;;;;;;;;;;5099565;27;19916;-90
2022/05/07 07:08:54;;;;;;;;;;;;;;;;;;5096648;27;19922;-89
2022/05/07 07:11:20;;;;;;;;;;;;;;;;;;5086792;27;19919;-90
2022/05/07 07:13:46;;;;;;;;;;;;;;;;;;5113530;27;20239;-90
2022/05/07 07:16:13;;;;;;;;;;;;;;;;;;5092991;27;19915;-91
2022/05/07 07:18:39;;;;;;;;;;;;;;;;;;5112857;27;19922;-92
2022/05/07 07:21:05;;;;;;;;;;;;;;;;;;5090395;28;19915;-90
2022/05/07 07:23:30;;;;;;;;;;;;;;;;;;5084584;27;19988;-89
2022/05/07 07:25:57;;;;;;;;;;;;;;;;;;5112115;27;19915;-90
2022/05/07 07:28:23;;;;;;;;;;;;;;;;;;5112054;27;19923;-89
2022/05/07 07:30:49;;;;;;;;;;;;;;;;;;5101999;27;19915;-91
2022/05/07 07:33:15;;;;;;;;;;;;;;;;;;5107821;27;19915;-91
2022/05/07 07:35:41;;;;;;;;;;;;;;;;;;5109361;27;19915;-91
2022/05/07 07:38:07;;;;;;;;;;;;;;;;;;5114222;27;19916;-89
2022/05/07 07:40:34;;;;;;;;;;;;;;;;;;5115160;27;19915;-89
2022/05/07 07:43:00;;;;;;;;;;;;;;;;;;5085969;28;19924;-90
2022/05/07 07:48:10;;;;;;;;;;;;;;;;;;5107761;27;19919;-90
2022/05/07 07:50:37;;;;;;;;;;;;;;;;;;5089653;27;19976;-83
2022/05/07 07:53:03;;;;;;;;;;;;;;;;;;5109700;27;20090;-87
2022/05/07 07:55:29;;;;;;;;;;;;;;;;;;5087688;28;19915;-89
2022/05/07 07:57:55;;;;;;;;;;;;;;;;;;5110444;27;19915;-92
2022/05/07 08:00:21;;;;;;;;;;;;;;;;;;5091357;27;20006;-85
2022/05/07 08:02:47;;;;;;;;;;;;;;;;;;5107342;27;19934;-87
2022/05/07 08:05:13;;;;;;;;;;;;;;;;;;5091348;27;19915;-85
2022/05/07 08:13:09;;;;;;;;;;;;;;;;;;5106566;27;20377;-85
2022/05/07 08:15:35;;;;;;;;;;;;;;;;;;5107408;27;19915;-84
2022/05/07 08:18:02;;;;;;;;;;;;;;;;;;5099692;27;20377;-87
2022/05/07 08:20:28;;;;;;;;;;;;;;;;;;5105741;27;19968;-83
2022/05/07 08:22:54;;;;;;;;;;;;;;;;;;5104153;27;19981;-86
2022/05/07 08:25:20;;;;;;;;;;;;;;;;;;5080633;27;20269;-82
2022/05/07 08:27:46;;;;;;;;;;;;;;;;;;5087542;27;19919;-81
2022/05/07 08:30:12;;;;;;;;;;;;;;;;;;5100119;28;19916;-80
2022/05/07 08:32:38;;;;;;;;;;;;;;;;;;5113865;27;19960;-80
2022/05/07 08:35:04;;;;;;;;;;;;;;;;;;5106675;27;19941;-85
2022/05/07 08:37:30;;;;;;;;;;;;;;;;;;5086007;27;19919;-82
2022/05/07 08:40:01;;;;;;;;;;;;;;;;;;5087830;27;19962;-80
2022/05/07 08:42:27;;;;;;;;;;;;;;;;;;5109290;27;20359;-81
2022/05/07 08:44:56;;;;;;;;;;;;;;;;;;5108420;27;20377;-78
2022/05/07 08:47:23;;;;;;;;;;;;;;;;;;5120312;27;19924;-81
2022/05/07 08:49:49;;;;;;;;;;;;;;;;;;5103617;28;19934;-82
2022/05/07 08:52:15;;;;;;;;;;;;;;;;;;5097758;28;20262;-79
2022/05/07 08:54:41;;;;;;;;;;;;;;;;;;5105979;27;19946;-79
2022/05/07 08:57:07;;;;;;;;;;;;;;;;;;5081117;27;19984;-81
2022/05/07 08:59:33;;;;;;;;;;;;;;;;;;5089261;27;19915;-80
2022/05/07 09:01:59;;;;;;;;;;;;;;;;;;5095374;28;19915;-80
2022/05/07 09:04:24;;;;;;;;;;;;;;;;;;5110623;28;19916;-82
2022/05/07 09:06:50;;;;;;;;;;;;;;;;;;5107074;28;19915;-80
2022/05/07 09:09:16;;;;;;;;;;;;;;;;;;5109230;28;19961;-85
2022/05/07 09:11:42;;;;;;;;;;;;;;;;;;5110145;28;19916;-81
2022/05/07 09:14:08;;;;;;;;;;;;;;;;;;5091365;28;20353;-81
2022/05/07 09:16:34;;;;;;;;;;;;;;;;;;5090295;28;19961;-85
2022/05/07 09:19:00;;;;;;;;;;;;;;;;;;5103669;28;19927;-82
2022/05/07 09:21:26;;;;;;;;;;;;;;;;;;5111472;28;19966;-79
2022/05/07 09:23:52;;;;;;;;;;;;;;;;;;5106189;28;20345;-84
2022/05/07 09:26:18;;;;;;;;;;;;;;;;;;5085389;28;19922;-79
2022/05/07 09:28:44;;;;;;;;;;;;;;;;;;5100640;28;19919;-80
2022/05/07 09:31:10;;;;;;;;;;;;;;;;;;5111944;28;20346;-79
2022/05/07 09:33:37;;;;;;;;;;;;;;;;;;5112374;28;20327;-80
2022/05/07 09:36:04;;;;;;;;;;;;;;;;;;5111158;28;19922;-80
2022/05/07 09:38:30;;;;;;;;;;;;;;;;;;5079424;28;20462;-79
2022/05/07 09:40:56;;;;;;;;;;;;;;;;;;5086307;28;20018;-78
2022/05/07 09:43:22;;;;;;;;;;;;;;;;;;5088595;28;20227;-82
2022/05/07 09:45:48;;;;;;;;;;;;;;;;;;5105157;27;19915;-78
2022/05/07 09:48:14;;;;;;;;;;;;;;;;;;5102571;28;19923;-79
2022/05/07 09:58:35;;;;;;;;;;;;;;;;;;5117375;27;20022;-91
2022/05/07 10:01:01;;;;;;;;;;;;;;;;;;5095856;27;20346;-92
2022/05/07 10:03:27;;;;;;;;;;;;;;;;;;5095743;27;19915;-93
2022/05/07 10:05:53;;;;;;;;;;;;;;;;;;5108612;27;19922;-91
2022/05/07 10:08:19;;;;;;;;;;;;;;;;;;5108239;28;19933;-91
2022/05/07 10:10:46;;;;;;;;;;;;;;;;;;5091622;27;19923;-91
2022/05/07 10:13:12;;;;;;;;;;;;;;;;;;5091943;27;19915;-90
2022/05/07 10:15:38;;;;;;;;;;;;;;;;;;5085593;28;20006;-89
2022/05/07 10:18:06;;;;;;;;;;;;;;;;;;5118064;27;19986;-92
2022/05/07 10:20:32;;;;;;;;;;;;;;;;;;5093331;28;19915;-92
2022/05/07 10:22:58;;;;;;;;;;;;;;;;;;5112714;28;20331;-90
2022/05/07 10:25:24;;;;;;;;;;;;;;;;;;5095942;27;19951;-93
2022/05/07 10:27:51;;;;;;;;;;;;;;;;;;5103441;27;19919;-92
2022/05/07 10:30:17;;;;;;;;;;;;;;;;;;5086849;28;19920;-88
2022/05/07 10:32:43;;;;;;;;;;;;;;;;;;5104661;27;19916;-83
2022/05/07 10:35:09;;;;;;;;;;;;;;;;;;5094150;27;20385;-83
2022/05/07 10:37:35;;;;;;;;;;;;;;;;;;5089922;28;19916;-83
2022/05/07 10:40:01;;;;;;;;;;;;;;;;;;5104236;27;19919;-85
2022/05/07 10:42:27;;;;;;;;;;;;;;;;;;5090804;27;20008;-83
2022/05/07 10:44:53;;;;;;;;;;;;;;;;;;5102904;28;19915;-82
2022/05/07 10:47:20;;;;;;;;;;;;;;;;;;5107610;27;20375;-82
2022/05/07 10:49:46;;;;;;;;;;;;;;;;;;5093606;27;19915;-83
2022/05/07 10:52:12;;;;;;;;;;;;;;;;;;5113948;27;20333;-82
2022/05/07 10:54:38;;;;;;;;;;;;;;;;;;5091286;27;19992;-82
2022/05/07 10:57:04;;;;;;;;;;;;;;;;;;5115292;27;19915;-82
2022/05/07 10:59:30;;;;;;;;;;;;;;;;;;5081916;27;19919;-83
2022/05/07 11:01:58;;;;;;;;;;;;;;;;;;5096473;27;19964;-83
2022/05/07 11:04:25;;;;;;;;;;;;;;;;;;5112188;28;19919;-87
2022/05/07 11:06:51;;;;;;;;;;;;;;;;;;5089387;27;19921;-86
2022/05/07 11:09:17;;;;;;;;;;;;;;;;;;5089416;28;19916;-89
2022/05/07 11:11:44;;;;;;;;;;;;;;;;;;5109247;28;19915;-89
2022/05/07 11:14:10;;;;;;;;;;;;;;;;;;5094374;27;19919;-84
2022/05/07 11:16:36;;;;;;;;;;;;;;;;;;5090133;27;19915;-84
2022/05/07 11:19:02;;;;;;;;;;;;;;;;;;5086970;27;19927;-90
2022/05/07 11:21:28;;;;;;;;;;;;;;;;;;5106160;27;19915;-86
2022/05/07 11:23:54;;;;;;;;;;;;;;;;;;5087960;27;20780;-86
2022/05/07 11:26:20;;;;;;;;;;;;;;;;;;5108299;27;19934;-87
2022/05/07 11:28:46;;;;;;;;;;;;;;;;;;5090988;27;19948;-87
2022/05/07 11:31:12;;;;;;;;;;;;;;;;;;5094527;28;19915;-84
2022/05/07 11:33:38;;;;;;;;;;;;;;;;;;5090960;27;19915;-84
2022/05/07 11:36:06;;;;;;;;;;;;;;;;;;5112981;27;19916;-85
2022/05/07 11:38:32;;;;;;;;;;;;;;;;;;5110519;27;19919;-87
2022/05/07 11:40:58;;;;;;;;;;;;;;;;;;5096513;27;19923;-87
2022/05/07 11:46:08;;;;;;;;;;;;;;;;;;5112190;27;20266;-84
2022/05/07 11:48:34;;;;;;;;;;;;;;;;;;5089695;27;19915;-86
2022/05/07 11:51:00;;;;;;;;;;;;;;;;;;5095625;27;19927;-84
2022/05/07 11:53:26;;;;;;;;;;;;;;;;;;5094642;28;20017;-84
2022/05/07 11:55:52;;;;;;;;;;;;;;;;;;5092580;27;19919;-84
2022/05/07 11:58:20;;;;;;;;;;;;;;;;;;5094606;27;19994;-83
2022/05/07 12:00:46;;;;;;;;;;;;;;;;;;5094154;28;19917;-84
2022/05/07 12:03:12;;;;;;;;;;;;;;;;;;5104063;27;19937;-88
2022/05/07 12:05:38;;;;;;;;;;;;;;;;;;5110288;27;20335;-86
2022/05/07 12:08:04;;;;;;;;;;;;;;;;;;5091084;27;19958;-91
2022/05/07 12:10:30;;;;;;;;;;;;;;;;;;5091007;27;19981;-84
2022/05/07 12:12:56;;;;;;;;;;;;;;;;;;5101364;27;19915;-95
2022/05/07 12:17:52;;;;;;;;;;;;;;;;;;5116341;27;19915;-90
2022/05/07 12:18:09;;;;;;;;;;;;;;;;;;5106144;27;19915;-90
2022/05/07 12:20:34;;;;;;;;;;;;;;;;;;5088238;28;19955;-88
2022/05/07 12:31:15;;;;;;;;;;;;;;;;;;5103323;27;19915;-87
2022/05/07 12:33:41;;;;;;;;;;;;;;;;;;5108513;27;20250;-86
2022/05/07 12:36:07;;;;;;;;;;;;;;;;;;5112476;27;20265;-88
2022/05/07 12:38:33;;;;;;;;;;;;;;;;;;5115527;27;19915;-85
2022/05/07 12:40:59;;;;;;;;;;;;;;;;;;5098290;27;20220;-85
2022/05/07 12:43:25;;;;;;;;;;;;;;;;;;5098138;27;19919;-84
2022/05/07 12:45:52;;;;;;;;;;;;;;;;;;5108272;28;19961;-86
2022/05/07 12:48:18;;;;;;;;;;;;;;;;;;5102247;27;20312;-87
2022/05/07 12:50:46;;;;;;;;;;;;;;;;;;5098340;28;19915;-87
2022/05/07 12:53:12;;;;;;;;;;;;;;;;;;5112050;27;20247;-86
2022/05/07 12:55:38;;;;;;;;;;;;;;;;;;5095045;28;19915;-86
2022/05/07 12:58:06;;;;;;;;;;;;;;;;;;5094366;28;19923;-82
2022/05/07 13:00:32;;;;;;;;;;;;;;;;;;5084597;27;19950;-84
2022/05/07 13:03:01;;;;;;;;;;;;;;;;;;5111856;28;20409;-87
2022/05/07 13:05:27;;;;;;;;;;;;;;;;;;5106025;28;20364;-85
2022/05/07 13:07:53;;;;;;;;;;;;;;;;;;5114433;28;19969;-82
2022/05/07 13:10:19;;;;;;;;;;;;;;;;;;5095401;28;19934;-86
2022/05/07 13:12:46;;;;;;;;;;;;;;;;;;5100998;28;19915;-86
2022/05/07 13:15:12;;;;;;;;;;;;;;;;;;5109085;28;19963;-85
2022/05/07 13:17:38;;;;;;;;;;;;;;;;;;5085414;28;19998;-87
2022/05/07 13:20:04;;;;;;;;;;;;;;;;;;5091583;28;20056;-90
2022/05/07 13:22:30;;;;;;;;;;;;;;;;;;5084592;28;19931;-94
2022/05/07 13:24:56;;;;;;;;;;;;;;;;;;5095969;28;19991;-94
2022/05/07 13:27:22;;;;;;;;;;;;;;;;;;5095522;28;19920;-90
2022/05/07 13:29:48;;;;;;;;;;;;;;;;;;5094923;28;19915;-90
2022/05/07 13:32:15;;;;;;;;;;;;;;;;;;5107053;28;19946;-90
2022/05/07 13:34:42;;;;;;;;;;;;;;;;;;5090310;28;20249;-91
2022/05/07 13:37:08;;;;;;;;;;;;;;;;;;5094126;28;19916;-93
2022/05/07 13:39:33;;;;;;;;;;;;;;;;;;5091906;28;20211;-89
2022/05/07 13:42:01;;;;;;;;;;;;;;;;;;5111086;28;19963;-88
2022/05/07 13:44:26;;;;;;;;;;;;;;;;;;5095593;28;19968;-89
2022/05/07 13:46:52;;;;;;;;;;;;;;;;;;5108850;28;20305;-89
2022/05/07 13:49:18;;;;;;;;;;;;;;;;;;5089993;28;19915;-83
2022/05/07 13:51:44;;;;;;;;;;;;;;;;;;5097940;28;19986;-93
2022/05/07 13:54:10;;;;;;;;;;;;;;;;;;5092259;28;19920;-85
2022/05/07 13:56:36;;;;;;;;;;;;;;;;;;5109116;28;19988;-85
2022/05/07 13:59:02;;;;;;;;;;;;;;;;;;5094321;28;19946;-84
2022/05/07 14:01:28;;;;;;;;;;;;;;;;;;5112156;28;19916;-84
2022/05/07 14:03:54;;;;;;;;;;;;;;;;;;5107897;28;19941;-83
2022/05/07 14:06:22;;;;;;;;;;;;;;;;;;5110400;28;19924;-84
2022/05/07 14:08:48;;;;;;;;;;;;;;;;;;5087488;28;19916;-84
2022/05/07 14:11:14;;;;;;;;;;;;;;;;;;5106654;28;19916;-85
2022/05/07 14:13:40;;;;;;;;;;;;;;;;;;5090403;28;19978;-85
2022/05/07 14:16:06;;;;;;;;;;;;;;;;;;5114572;28;19916;-92
2022/05/07 14:18:32;;;;;;;;;;;;;;;;;;5092700;28;19922;-90
2022/05/07 14:20:59;;;;;;;;;;;;;;;;;;5109838;28;20025;-91
2022/05/07 14:23:25;;;;;;;;;;;;;;;;;;5107969;28;19916;-91
2022/05/07 14:25:51;;;;;;;;;;;;;;;;;;5089799;28;19966;-91
2022/05/07 14:28:17;;;;;;;;;;;;;;;;;;5089946;28;19959;-90
2022/05/07 14:30:44;;;;;;;;;;;;;;;;;;5107173;28;19915;-89
2022/05/07 14:33:10;;;;;;;;;;;;;;;;;;5106833;28;20449;-87
2022/05/07 14:35:36;;;;;;;;;;;;;;;;;;5081402;28;19946;-82
2022/05/07 14:38:02;;;;;;;;;;;;;;;;;;5101388;28;20369;-85
2022/05/07 14:40:28;;;;;;;;;;;;;;;;;;5091027;28;19923;-86
2022/05/07 14:42:54;;;;;;;;;;;;;;;;;;5087489;28;19970;-85
2022/05/07 14:45:20;;;;;;;;;;;;;;;;;;5078994;28;19927;-86
2022/05/07 14:47:46;;;;;;;;;;;;;;;;;;5120628;28;19966;-86
2022/05/07 14:50:12;;;;;;;;;;;;;;;;;;5115312;28;20350;-83
2022/05/07 14:52:38;;;;;;;;;;;;;;;;;;5095950;28;19924;-84
2022/05/07 14:55:04;;;;;;;;;;;;;;;;;;5110864;28;19922;-85
2022/05/07 14:57:30;;;;;;;;;;;;;;;;;;5089606;28;19959;-85
2022/05/07 14:59:56;;;;;;;;;;;;;;;;;;5089545;28;19923;-86
2022/05/07 15:02:22;;;;;;;;;;;;;;;;;;5088790;28;19915;-84
2022/05/07 15:04:48;;;;;;;;;;;;;;;;;;5094327;28;19958;-84
2022/05/07 15:07:14;;;;;;;;;;;;;;;;;;5106103;27;19916;-88
2022/05/07 15:12:25;;;;;;;;;;;;;;;;;;5096725;28;20359;-89
2022/05/07 15:14:51;;;;;;;;;;;;;;;;;;5093200;28;20002;-87
2022/05/07 15:17:17;;;;;;;;;;;;;;;;;;5082572;28;20006;-90
2022/05/07 15:19:43;;;;;;;;;;;;;;;;;;5103903;28;19929;-88
2022/05/07 15:22:09;;;;;;;;;;;;;;;;;;5079351;28;19928;-89
2022/05/07 15:24:35;;;;;;;;;;;;;;;;;;5079219;28;19922;-89
2022/05/07 15:27:01;;;;;;;;;;;;;;;;;;5082846;28;19923;-86
2022/05/07 15:29:27;;;;;;;;;;;;;;;;;;5101960;28;19926;-86
2022/05/07 15:37:23;;;;;;;;;;;;;;;;;;5097478;27;20010;-88
2022/05/07 15:39:49;;;;;;;;;;;;;;;;;;5115927;28;19919;-87
2022/05/07 15:42:15;;;;;;;;;;;;;;;;;;5095571;28;19927;-89
2022/05/07 15:44:41;;;;;;;;;;;;;;;;;;5103245;28;20823;-92
2022/05/07 15:47:08;;;;;;;;;;;;;;;;;;5114772;28;19923;-88
2022/05/07 15:49:35;;;;;;;;;;;;;;;;;;5093680;28;20564;-87
2022/05/07 15:52:02;;;;;;;;;;;;;;;;;;5103162;28;19908;-86
2022/05/07 15:54:28;;;;;;;;;;;;;;;;;;5114084;28;20231;-87
2022/05/07 15:56:54;;;;;;;;;;;;;;;;;;5082356;28;19916;-88
2022/05/07 15:59:20;;;;;;;;;;;;;;;;;;5078936;28;20708;-85
2022/05/07 16:01:46;;;;;;;;;;;;;;;;;;5087740;28;19943;-86
2022/05/07 16:04:14;;;;;;;;;;;;;;;;;;5083293;28;19965;-87
2022/05/07 16:06:40;;;;;;;;;;;;;;;;;;5095930;28;20056;-86
2022/05/07 16:09:07;;;;;;;;;;;;;;;;;;5088652;28;20027;-82
2022/05/07 16:11:33;;;;;;;;;;;;;;;;;;5093797;28;19916;-86
2022/05/07 16:13:59;;;;;;;;;;;;;;;;;;5108418;28;19939;-78
2022/05/07 16:16:25;;;;;;;;;;;;;;;;;;5087005;28;19915;-80
2022/05/07 16:18:51;;;;;;;;;;;;;;;;;;5102028;28;19970;-81
2022/05/07 16:21:18;;;;;;;;;;;;;;;;;;5101505;28;19916;-84
2022/05/07 16:26:29;;;;;;;;;;;;;;;;;;5093363;28;20427;-85
2022/05/07 16:28:55;;;;;;;;;;;;;;;;;;5079232;28;20008;-81
2022/05/07 16:31:21;;;;;;;;;;;;;;;;;;5081616;28;20258;-83
2022/05/07 16:33:47;;;;;;;;;;;;;;;;;;5086935;28;20569;-83
2022/05/07 16:36:15;;;;;;;;;;;;;;;;;;5099984;28;19991;-83
2022/05/07 16:38:41;;;;;;;;;;;;;;;;;;5091131;28;19923;-84
2022/05/07 16:41:07;;;;;;;;;;;;;;;;;;5080842;28;19923;-86
2022/05/07 16:43:33;;;;;;;;;;;;;;;;;;5077166;28;19916;-87
2022/05/07 16:45:59;;;;;;;;;;;;;;;;;;5108292;27;19916;-85
2022/05/07 16:48:27;;;;;;;;;;;;;;;;;;5074147;28;19916;-83
2022/05/07 16:50:53;;;;;;;;;;;;;;;;;;5073361;28;20338;-83
2022/05/07 16:53:19;;;;;;;;;;;;;;;;;;5103122;28;20018;-88
2022/05/07 16:55:45;;;;;;;;;;;;;;;;;;5097376;28;20402;-85
2022/05/07 16:58:11;;;;;;;;;;;;;;;;;;5095949;28;19927;-85
2022/05/07 17:00:37;;;;;;;;;;;;;;;;;;5103254;28;20014;-82
2022/05/07 17:03:03;;;;;;;;;;;;;;;;;;5107962;28;19915;-82
2022/05/07 17:05:29;;;;;;;;;;;;;;;;;;5082983;28;20354;-83
2022/05/07 17:07:55;;;;;;;;;;;;;;;;;;5082427;28;19931;-85
2022/05/07 17:10:21;;;;;;;;;;;;;;;;;;5069809;28;19990;-87
2022/05/07 17:12:47;;;;;;;;;;;;;;;;;;5077407;28;19955;-83